sensor_id;sensor_type;location;lat;lon;timestamp;pressure;altitude;pressure_sealevel;temperature
56286;BMP180;42191;47.562;9.686;2022-07-04T00:00:42;97156.00;;;26.70
56286;BMP180;42191;47.562;9.686;2022-07-04T00:03:08;97155.00;;;26.70
56286;BMP180;42191;47.562;9.686;2022-07-04T00:05:34;97153.00;;;26.60
56286;BMP180;42191;47.562;9.686;2022-07-04T00:08:00;97151.00;;;26.60
56286;BMP180;42191;47.562;9.686;2022-07-04T00:10:26;97141.00;;;26.60
56286;BMP180;42191;47.562;9.686;2022-07-04T00:12:52;97136.00;;;26.60
56286;BMP180;42191;47.562;9.686;2022-07-04T00:15:19;97136.00;;;26.50
56286;BMP180;42191;47.562;9.686;2022-07-04T00:17:45;97142.00;;;26.50
56286;BMP180;42191;47.562;9.686;2022-07-04T00:20:12;97139.00;;;26.50
56286;BMP180;42191;47.562;9.686;2022-07-04T00:22:38;97129.00;;;26.40
56286;BMP180;42191;47.562;9.686;2022-07-04T00:25:06;97129.00;;;26.40
56286;BMP180;42191;47.562;9.686;2022-07-04T00:27:32;97109.00;;;26.40
56286;BMP180;42191;47.562;9.686;2022-07-04T00:29:58;97109.00;;;26.30
56286;BMP180;42191;47.562;9.686;2022-07-04T00:32:24;97102.00;;;26.30
56286;BMP180;42191;47.562;9.686;2022-07-04T00:34:50;97105.00;;;26.20
56286;BMP180;42191;47.562;9.686;2022-07-04T00:37:16;97112.00;;;26.20
56286;BMP180;42191;47.562;9.686;2022-07-04T00:39:42;97101.00;;;26.10
56286;BMP180;42191;47.562;9.686;2022-07-04T00:42:09;97082.00;;;26.10
56286;BMP180;42191;47.562;9.686;2022-07-04T00:44:36;97075.00;;;26.00
56286;BMP180;42191;47.562;9.686;2022-07-04T00:47:06;97067.00;;;25.90
56286;BMP180;42191;47.562;9.686;2022-07-04T00:49:33;97063.00;;;25.90
56286;BMP180;42191;47.562;9.686;2022-07-04T00:52:01;97051.00;;;25.80
56286;BMP180;42191;47.562;9.686;2022-07-04T00:54:29;97056.00;;;25.80
56286;BMP180;42191;47.562;9.686;2022-07-04T00:56:57;97056.00;;;25.80
56286;BMP180;42191;47.562;9.686;2022-07-04T00:59:23;97064.00;;;25.70
56286;BMP180;42191;47.562;9.686;2022-07-04T01:01:50;97069.00;;;25.70
56286;BMP180;42191;47.562;9.686;2022-07-04T01:04:16;97062.00;;;25.60
56286;BMP180;42191;47.562;9.686;2022-07-04T01:06:43;97049.00;;;25.60
56286;BMP180;42191;47.562;9.686;2022-07-04T01:09:11;97050.00;;;25.60
56286;BMP180;42191;47.562;9.686;2022-07-04T01:11:37;97040.00;;;25.50
56286;BMP180;42191;47.562;9.686;2022-07-04T01:14:03;97043.00;;;25.50
56286;BMP180;42191;47.562;9.686;2022-07-04T01:16:32;97029.00;;;25.50
56286;BMP180;42191;47.562;9.686;2022-07-04T01:18:58;97027.00;;;25.40
56286;BMP180;42191;47.562;9.686;2022-07-04T01:21:24;97021.00;;;25.40
56286;BMP180;42191;47.562;9.686;2022-07-04T01:23:51;97027.00;;;25.40
56286;BMP180;42191;47.562;9.686;2022-07-04T01:26:17;97021.00;;;25.40
56286;BMP180;42191;47.562;9.686;2022-07-04T01:28:44;97018.00;;;25.30
56286;BMP180;42191;47.562;9.686;2022-07-04T01:31:10;97021.00;;;25.30
56286;BMP180;42191;47.562;9.686;2022-07-04T01:33:36;97018.00;;;25.30
56286;BMP180;42191;47.562;9.686;2022-07-04T01:36:02;97029.00;;;25.30
56286;BMP180;42191;47.562;9.686;2022-07-04T01:38:29;97018.00;;;25.20
56286;BMP180;42191;47.562;9.686;2022-07-04T01:40:55;97018.00;;;25.20
56286;BMP180;42191;47.562;9.686;2022-07-04T01:43:21;97019.00;;;25.20
56286;BMP180;42191;47.562;9.686;2022-07-04T01:45:47;97030.00;;;25.20
56286;BMP180;42191;47.562;9.686;2022-07-04T01:48:13;97035.00;;;25.20
56286;BMP180;42191;47.562;9.686;2022-07-04T01:50:40;97028.00;;;25.20
56286;BMP180;42191;47.562;9.686;2022-07-04T01:53:06;97034.00;;;25.20
56286;BMP180;42191;47.562;9.686;2022-07-04T01:55:33;97026.00;;;25.20
56286;BMP180;42191;47.562;9.686;2022-07-04T01:57:59;97022.00;;;25.10
56286;BMP180;42191;47.562;9.686;2022-07-04T02:00:26;97024.00;;;25.10
56286;BMP180;42191;47.562;9.686;2022-07-04T02:03:11;97032.00;;;25.10
56286;BMP180;42191;47.562;9.686;2022-07-04T02:05:37;97029.00;;;25.10
56286;BMP180;42191;47.562;9.686;2022-07-04T02:08:05;97036.00;;;25.10
56286;BMP180;42191;47.562;9.686;2022-07-04T02:10:31;97044.00;;;25.00
56286;BMP180;42191;47.562;9.686;2022-07-04T02:12:57;97033.00;;;25.00
56286;BMP180;42191;47.562;9.686;2022-07-04T02:15:35;97035.00;;;25.00
56286;BMP180;42191;47.562;9.686;2022-07-04T02:18:03;97037.00;;;25.00
56286;BMP180;42191;47.562;9.686;2022-07-04T02:20:30;97042.00;;;25.00
56286;BMP180;42191;47.562;9.686;2022-07-04T02:22:56;97045.00;;;25.00
56286;BMP180;42191;47.562;9.686;2022-07-04T02:25:22;97050.00;;;25.00
56286;BMP180;42191;47.562;9.686;2022-07-04T02:27:48;97056.00;;;25.00
56286;BMP180;42191;47.562;9.686;2022-07-04T02:30:15;97052.00;;;25.00
56286;BMP180;42191;47.562;9.686;2022-07-04T02:32:41;97048.00;;;25.00
56286;BMP180;42191;47.562;9.686;2022-07-04T02:35:08;97063.00;;;25.00
56286;BMP180;42191;47.562;9.686;2022-07-04T02:37:35;97075.00;;;25.00
56286;BMP180;42191;47.562;9.686;2022-07-04T02:40:02;97081.00;;;25.00
56286;BMP180;42191;47.562;9.686;2022-07-04T02:42:31;97087.00;;;25.00
56286;BMP180;42191;47.562;9.686;2022-07-04T02:44:58;97098.00;;;25.00
56286;BMP180;42191;47.562;9.686;2022-07-04T02:47:24;97104.00;;;25.00
56286;BMP180;42191;47.562;9.686;2022-07-04T02:49:51;97103.00;;;25.00
56286;BMP180;42191;47.562;9.686;2022-07-04T02:52:17;97108.00;;;25.00
56286;BMP180;42191;47.562;9.686;2022-07-04T02:54:43;97116.00;;;25.00
56286;BMP180;42191;47.562;9.686;2022-07-04T02:57:11;97108.00;;;25.00
56286;BMP180;42191;47.562;9.686;2022-07-04T02:59:37;97120.00;;;25.00
56286;BMP180;42191;47.562;9.686;2022-07-04T03:02:04;97128.00;;;25.00
56286;BMP180;42191;47.562;9.686;2022-07-04T03:04:30;97126.00;;;25.00
56286;BMP180;42191;47.562;9.686;2022-07-04T03:06:56;97126.00;;;25.10
56286;BMP180;42191;47.562;9.686;2022-07-04T03:09:22;97140.00;;;25.10
56286;BMP180;42191;47.562;9.686;2022-07-04T03:11:48;97141.00;;;25.10
56286;BMP180;42191;47.562;9.686;2022-07-04T03:14:14;97153.00;;;25.20
56286;BMP180;42191;47.562;9.686;2022-07-04T03:16:41;97167.00;;;25.20
56286;BMP180;42191;47.562;9.686;2022-07-04T03:19:07;97177.00;;;25.20
56286;BMP180;42191;47.562;9.686;2022-07-04T03:21:33;97197.00;;;25.30
56286;BMP180;42191;47.562;9.686;2022-07-04T03:23:59;97203.00;;;25.30
56286;BMP180;42191;47.562;9.686;2022-07-04T03:26:30;97210.00;;;25.30
56286;BMP180;42191;47.562;9.686;2022-07-04T03:28:57;97211.00;;;25.30
56286;BMP180;42191;47.562;9.686;2022-07-04T03:31:23;97224.00;;;25.40
56286;BMP180;42191;47.562;9.686;2022-07-04T03:33:50;97233.00;;;25.40
56286;BMP180;42191;47.562;9.686;2022-07-04T03:36:16;97242.00;;;25.40
56286;BMP180;42191;47.562;9.686;2022-07-04T03:38:43;97252.00;;;25.40
56286;BMP180;42191;47.562;9.686;2022-07-04T03:41:10;97247.00;;;25.30
56286;BMP180;42191;47.562;9.686;2022-07-04T03:43:36;97257.00;;;25.30
56286;BMP180;42191;47.562;9.686;2022-07-04T03:46:02;97272.00;;;25.30
56286;BMP180;42191;47.562;9.686;2022-07-04T03:48:28;97294.00;;;25.30
56286;BMP180;42191;47.562;9.686;2022-07-04T03:50:54;97296.00;;;25.20
56286;BMP180;42191;47.562;9.686;2022-07-04T03:53:21;97298.00;;;25.10
56286;BMP180;42191;47.562;9.686;2022-07-04T03:55:47;97311.00;;;25.00
56286;BMP180;42191;47.562;9.686;2022-07-04T03:58:14;97325.00;;;24.90
56286;BMP180;42191;47.562;9.686;2022-07-04T04:00:40;97336.00;;;24.80
56286;BMP180;42191;47.562;9.686;2022-07-04T04:03:08;97342.00;;;24.60
56286;BMP180;42191;47.562;9.686;2022-07-04T04:05:55;97343.00;;;24.30
56286;BMP180;42191;47.562;9.686;2022-07-04T04:08:21;97337.00;;;24.20
56286;BMP180;42191;47.562;9.686;2022-07-04T04:10:47;97344.00;;;24.00
56286;BMP180;42191;47.562;9.686;2022-07-04T04:13:14;97347.00;;;23.90
56286;BMP180;42191;47.562;9.686;2022-07-04T04:15:40;97348.00;;;23.70
56286;BMP180;42191;47.562;9.686;2022-07-04T04:18:06;97336.00;;;23.60
56286;BMP180;42191;47.562;9.686;2022-07-04T04:20:32;97345.00;;;23.50
56286;BMP180;42191;47.562;9.686;2022-07-04T04:22:58;97334.00;;;23.40
56286;BMP180;42191;47.562;9.686;2022-07-04T04:25:24;97338.00;;;23.40
56286;BMP180;42191;47.562;9.686;2022-07-04T04:27:51;97339.00;;;23.30
56286;BMP180;42191;47.562;9.686;2022-07-04T04:30:17;97353.00;;;23.30
56286;BMP180;42191;47.562;9.686;2022-07-04T04:32:43;97344.00;;;23.20
56286;BMP180;42191;47.562;9.686;2022-07-04T04:35:09;97320.00;;;23.20
56286;BMP180;42191;47.562;9.686;2022-07-04T04:37:35;97325.00;;;23.20
56286;BMP180;42191;47.562;9.686;2022-07-04T04:40:01;97336.00;;;23.20
56286;BMP180;42191;47.562;9.686;2022-07-04T04:42:28;97321.00;;;23.20
56286;BMP180;42191;47.562;9.686;2022-07-04T04:44:54;97305.00;;;23.20
56286;BMP180;42191;47.562;9.686;2022-07-04T04:47:20;97306.00;;;23.30
56286;BMP180;42191;47.562;9.686;2022-07-04T04:49:46;97275.00;;;23.30
56286;BMP180;42191;47.562;9.686;2022-07-04T04:52:13;97252.00;;;23.30
56286;BMP180;42191;47.562;9.686;2022-07-04T04:54:39;97253.00;;;23.30
56286;BMP180;42191;47.562;9.686;2022-07-04T04:57:05;97240.00;;;23.30
56286;BMP180;42191;47.562;9.686;2022-07-04T04:59:32;97228.00;;;23.30
56286;BMP180;42191;47.562;9.686;2022-07-04T05:01:58;97216.00;;;23.30
56286;BMP180;42191;47.562;9.686;2022-07-04T05:04:25;97231.00;;;23.30
56286;BMP180;42191;47.562;9.686;2022-07-04T05:06:51;97220.00;;;23.30
56286;BMP180;42191;47.562;9.686;2022-07-04T05:09:17;97227.00;;;23.40
56286;BMP180;42191;47.562;9.686;2022-07-04T05:11:45;97254.00;;;23.40
56286;BMP180;42191;47.562;9.686;2022-07-04T05:14:12;97255.00;;;23.40
56286;BMP180;42191;47.562;9.686;2022-07-04T05:16:38;97246.00;;;23.40
56286;BMP180;42191;47.562;9.686;2022-07-04T05:19:04;97267.00;;;23.40
56286;BMP180;42191;47.562;9.686;2022-07-04T05:21:31;97279.00;;;23.40
56286;BMP180;42191;47.562;9.686;2022-07-04T05:23:57;97263.00;;;23.40
56286;BMP180;42191;47.562;9.686;2022-07-04T05:26:23;97253.00;;;23.50
56286;BMP180;42191;47.562;9.686;2022-07-04T05:28:50;97264.00;;;23.50
56286;BMP180;42191;47.562;9.686;2022-07-04T05:31:16;97235.00;;;23.50
56286;BMP180;42191;47.562;9.686;2022-07-04T05:33:42;97234.00;;;23.50
56286;BMP180;42191;47.562;9.686;2022-07-04T05:36:08;97243.00;;;23.50
56286;BMP180;42191;47.562;9.686;2022-07-04T05:38:34;97246.00;;;23.50
56286;BMP180;42191;47.562;9.686;2022-07-04T05:41:01;97253.00;;;23.50
56286;BMP180;42191;47.562;9.686;2022-07-04T05:43:28;97255.00;;;23.50
56286;BMP180;42191;47.562;9.686;2022-07-04T05:45:56;97247.00;;;23.50
56286;BMP180;42191;47.562;9.686;2022-07-04T05:48:22;97245.00;;;23.50
56286;BMP180;42191;47.562;9.686;2022-07-04T05:50:48;97262.00;;;23.50
56286;BMP180;42191;47.562;9.686;2022-07-04T05:53:14;97280.00;;;23.50
56286;BMP180;42191;47.562;9.686;2022-07-04T05:55:40;97288.00;;;23.50
56286;BMP180;42191;47.562;9.686;2022-07-04T05:58:07;97286.00;;;23.50
56286;BMP180;42191;47.562;9.686;2022-07-04T06:00:33;97286.00;;;23.50
56286;BMP180;42191;47.562;9.686;2022-07-04T06:02:59;97291.00;;;23.50
56286;BMP180;42191;47.562;9.686;2022-07-04T06:05:25;97294.00;;;23.50
56286;BMP180;42191;47.562;9.686;2022-07-04T06:07:51;97298.00;;;23.50
56286;BMP180;42191;47.562;9.686;2022-07-04T06:10:17;97287.00;;;23.50
56286;BMP180;42191;47.562;9.686;2022-07-04T06:12:43;97292.00;;;23.50
56286;BMP180;42191;47.562;9.686;2022-07-04T06:15:09;97285.00;;;23.50
56286;BMP180;42191;47.562;9.686;2022-07-04T06:17:36;97290.00;;;23.50
56286;BMP180;42191;47.562;9.686;2022-07-04T06:20:03;97291.00;;;23.50
56286;BMP180;42191;47.562;9.686;2022-07-04T06:22:45;97295.00;;;23.50
56286;BMP180;42191;47.562;9.686;2022-07-04T06:25:13;97313.00;;;23.50
56286;BMP180;42191;47.562;9.686;2022-07-04T06:27:40;97305.00;;;23.50
56286;BMP180;42191;47.562;9.686;2022-07-04T06:30:06;97302.00;;;23.50
56286;BMP180;42191;47.562;9.686;2022-07-04T06:32:48;97305.00;;;23.60
56286;BMP180;42191;47.562;9.686;2022-07-04T06:35:23;97300.00;;;23.50
56286;BMP180;42191;47.562;9.686;2022-07-04T06:38:08;97300.00;;;23.60
56286;BMP180;42191;47.562;9.686;2022-07-04T06:40:36;97301.00;;;23.60
56286;BMP180;42191;47.562;9.686;2022-07-04T06:43:03;97290.00;;;23.60
56286;BMP180;42191;47.562;9.686;2022-07-04T06:45:30;97290.00;;;23.60
56286;BMP180;42191;47.562;9.686;2022-07-04T06:47:56;97288.00;;;23.60
56286;BMP180;42191;47.562;9.686;2022-07-04T06:50:23;97275.00;;;23.70
56286;BMP180;42191;47.562;9.686;2022-07-04T06:52:49;97288.00;;;23.70
56286;BMP180;42191;47.562;9.686;2022-07-04T06:55:15;97266.00;;;23.70
56286;BMP180;42191;47.562;9.686;2022-07-04T06:57:41;97257.00;;;23.70
56286;BMP180;42191;47.562;9.686;2022-07-04T07:00:08;97241.00;;;23.80
56286;BMP180;42191;47.562;9.686;2022-07-04T07:02:37;97244.00;;;23.80
56286;BMP180;42191;47.562;9.686;2022-07-04T07:05:04;97243.00;;;23.80
56286;BMP180;42191;47.562;9.686;2022-07-04T07:07:31;97246.00;;;23.80
56286;BMP180;42191;47.562;9.686;2022-07-04T07:09:57;97247.00;;;23.90
56286;BMP180;42191;47.562;9.686;2022-07-04T07:12:23;97258.00;;;23.90
56286;BMP180;42191;47.562;9.686;2022-07-04T07:14:50;97271.00;;;24.00
56286;BMP180;42191;47.562;9.686;2022-07-04T07:17:17;97261.00;;;24.00
56286;BMP180;42191;47.562;9.686;2022-07-04T07:19:44;97263.00;;;24.10
56286;BMP180;42191;47.562;9.686;2022-07-04T07:22:11;97244.00;;;24.10
56286;BMP180;42191;47.562;9.686;2022-07-04T07:24:37;97231.00;;;24.20
56286;BMP180;42191;47.562;9.686;2022-07-04T07:27:04;97224.00;;;24.20
56286;BMP180;42191;47.562;9.686;2022-07-04T07:29:31;97203.00;;;24.30
56286;BMP180;42191;47.562;9.686;2022-07-04T07:31:58;97193.00;;;24.40
56286;BMP180;42191;47.562;9.686;2022-07-04T07:34:26;97179.00;;;24.50
56286;BMP180;42191;47.562;9.686;2022-07-04T07:36:53;97145.00;;;24.60
56286;BMP180;42191;47.562;9.686;2022-07-04T07:39:19;97111.00;;;24.60
56286;BMP180;42191;47.562;9.686;2022-07-04T07:41:46;97091.00;;;24.70
56286;BMP180;42191;47.562;9.686;2022-07-04T07:44:12;97106.00;;;24.70
56286;BMP180;42191;47.562;9.686;2022-07-04T07:46:38;97103.00;;;24.80
56286;BMP180;42191;47.562;9.686;2022-07-04T07:49:04;97100.00;;;24.90
56286;BMP180;42191;47.562;9.686;2022-07-04T07:51:30;97117.00;;;25.00
56286;BMP180;42191;47.562;9.686;2022-07-04T07:53:56;97100.00;;;25.00
56286;BMP180;42191;47.562;9.686;2022-07-04T07:56:23;97110.00;;;25.10
56286;BMP180;42191;47.562;9.686;2022-07-04T07:58:50;97135.00;;;25.10
56286;BMP180;42191;47.562;9.686;2022-07-04T08:01:16;97150.00;;;25.10
56286;BMP180;42191;47.562;9.686;2022-07-04T08:03:43;97154.00;;;25.20
56286;BMP180;42191;47.562;9.686;2022-07-04T08:06:28;97159.00;;;25.20
56286;BMP180;42191;47.562;9.686;2022-07-04T08:08:54;97177.00;;;25.30
56286;BMP180;42191;47.562;9.686;2022-07-04T08:11:22;97174.00;;;25.30
56286;BMP180;42191;47.562;9.686;2022-07-04T08:13:48;97165.00;;;25.20
56286;BMP180;42191;47.562;9.686;2022-07-04T08:16:14;97169.00;;;25.20
56286;BMP180;42191;47.562;9.686;2022-07-04T08:18:40;97141.00;;;25.20
56286;BMP180;42191;47.562;9.686;2022-07-04T08:21:07;97133.00;;;25.20
56286;BMP180;42191;47.562;9.686;2022-07-04T08:23:33;97126.00;;;25.30
56286;BMP180;42191;47.562;9.686;2022-07-04T08:26:00;97124.00;;;25.40
56286;BMP180;42191;47.562;9.686;2022-07-04T08:28:27;97137.00;;;25.50
56286;BMP180;42191;47.562;9.686;2022-07-04T08:30:54;97152.00;;;25.70
56286;BMP180;42191;47.562;9.686;2022-07-04T08:33:20;97157.00;;;25.80
56286;BMP180;42191;47.562;9.686;2022-07-04T08:35:46;97166.00;;;25.90
56286;BMP180;42191;47.562;9.686;2022-07-04T08:38:12;97174.00;;;26.00
56286;BMP180;42191;47.562;9.686;2022-07-04T08:40:41;97173.00;;;26.10
56286;BMP180;42191;47.562;9.686;2022-07-04T08:43:14;97181.00;;;26.30
56286;BMP180;42191;47.562;9.686;2022-07-04T08:45:40;97181.00;;;26.40
56286;BMP180;42191;47.562;9.686;2022-07-04T08:48:08;97184.00;;;26.50
56286;BMP180;42191;47.562;9.686;2022-07-04T08:50:38;97178.00;;;26.60
56286;BMP180;42191;47.562;9.686;2022-07-04T08:53:13;97185.00;;;26.70
56286;BMP180;42191;47.562;9.686;2022-07-04T08:55:40;97179.00;;;26.90
56286;BMP180;42191;47.562;9.686;2022-07-04T08:58:27;97179.00;;;27.00
56286;BMP180;42191;47.562;9.686;2022-07-04T09:01:02;97177.00;;;27.20
56286;BMP180;42191;47.562;9.686;2022-07-04T09:03:29;97177.00;;;27.30
56286;BMP180;42191;47.562;9.686;2022-07-04T09:05:56;97183.00;;;27.40
56286;BMP180;42191;47.562;9.686;2022-07-04T09:08:22;97182.00;;;27.50
56286;BMP180;42191;47.562;9.686;2022-07-04T09:10:50;97177.00;;;27.60
56286;BMP180;42191;47.562;9.686;2022-07-04T09:13:16;97166.00;;;27.70
56286;BMP180;42191;47.562;9.686;2022-07-04T09:15:49;97174.00;;;27.80
56286;BMP180;42191;47.562;9.686;2022-07-04T09:18:35;97172.00;;;27.80
56286;BMP180;42191;47.562;9.686;2022-07-04T09:21:04;97171.00;;;27.90
56286;BMP180;42191;47.562;9.686;2022-07-04T09:23:32;97179.00;;;28.10
56286;BMP180;42191;47.562;9.686;2022-07-04T09:28:38;97183.00;;;28.30
56286;BMP180;42191;47.562;9.686;2022-07-04T09:31:24;97181.00;;;28.50
56286;BMP180;42191;47.562;9.686;2022-07-04T09:34:02;97184.00;;;28.60
56286;BMP180;42191;47.562;9.686;2022-07-04T09:36:33;97183.00;;;28.70
56286;BMP180;42191;47.562;9.686;2022-07-04T09:39:17;97182.00;;;28.80
56286;BMP180;42191;47.562;9.686;2022-07-04T09:41:59;97183.00;;;28.90
56286;BMP180;42191;47.562;9.686;2022-07-04T09:44:28;97189.00;;;29.10
56286;BMP180;42191;47.562;9.686;2022-07-04T09:46:55;97182.00;;;29.20
56286;BMP180;42191;47.562;9.686;2022-07-04T09:49:23;97180.00;;;29.30
56286;BMP180;42191;47.562;9.686;2022-07-04T09:51:53;97185.00;;;29.40
56286;BMP180;42191;47.562;9.686;2022-07-04T09:56:52;97186.00;;;29.60
56286;BMP180;42191;47.562;9.686;2022-07-04T09:59:19;97187.00;;;29.60
56286;BMP180;42191;47.562;9.686;2022-07-04T10:01:46;97182.00;;;29.60
56286;BMP180;42191;47.562;9.686;2022-07-04T10:04:12;97190.00;;;29.50
56286;BMP180;42191;47.562;9.686;2022-07-04T10:06:41;97191.00;;;29.50
56286;BMP180;42191;47.562;9.686;2022-07-04T10:09:15;97195.00;;;29.50
56286;BMP180;42191;47.562;9.686;2022-07-04T10:11:43;97183.00;;;29.50
56286;BMP180;42191;47.562;9.686;2022-07-04T10:14:12;97187.00;;;29.50
56286;BMP180;42191;47.562;9.686;2022-07-04T10:16:40;97188.00;;;29.50
56286;BMP180;42191;47.562;9.686;2022-07-04T10:19:07;97182.00;;;29.50
56286;BMP180;42191;47.562;9.686;2022-07-04T10:21:34;97178.00;;;29.50
56286;BMP180;42191;47.562;9.686;2022-07-04T10:24:01;97182.00;;;29.50
56286;BMP180;42191;47.562;9.686;2022-07-04T10:26:30;97177.00;;;29.60
56286;BMP180;42191;47.562;9.686;2022-07-04T10:28:56;97180.00;;;29.70
56286;BMP180;42191;47.562;9.686;2022-07-04T10:31:24;97171.00;;;29.80
56286;BMP180;42191;47.562;9.686;2022-07-04T10:33:52;97183.00;;;29.90
56286;BMP180;42191;47.562;9.686;2022-07-04T10:36:22;97174.00;;;30.00
56286;BMP180;42191;47.562;9.686;2022-07-04T10:38:52;97170.00;;;30.10
56286;BMP180;42191;47.562;9.686;2022-07-04T10:41:20;97166.00;;;30.20
56286;BMP180;42191;47.562;9.686;2022-07-04T10:44:04;97162.00;;;30.30
56286;BMP180;42191;47.562;9.686;2022-07-04T10:46:52;97165.00;;;30.40
56286;BMP180;42191;47.562;9.686;2022-07-04T10:49:24;97157.00;;;30.40
56286;BMP180;42191;47.562;9.686;2022-07-04T10:51:56;97171.00;;;30.50
56286;BMP180;42191;47.562;9.686;2022-07-04T10:54:36;97166.00;;;30.50
56286;BMP180;42191;47.562;9.686;2022-07-04T10:57:16;97166.00;;;30.50
56286;BMP180;42191;47.562;9.686;2022-07-04T11:02:32;97163.00;;;30.60
56286;BMP180;42191;47.562;9.686;2022-07-04T11:05:08;97157.00;;;30.50
56286;BMP180;42191;47.562;9.686;2022-07-04T11:20:21;97149.00;;;31.00
56286;BMP180;42191;47.562;9.686;2022-07-04T11:22:47;97143.00;;;31.00
56286;BMP180;42191;47.562;9.686;2022-07-04T11:25:14;97155.00;;;31.20
56286;BMP180;42191;47.562;9.686;2022-07-04T11:27:42;97145.00;;;31.30
56286;BMP180;42191;47.562;9.686;2022-07-04T11:30:09;97141.00;;;31.40
56286;BMP180;42191;47.562;9.686;2022-07-04T11:32:38;97133.00;;;31.50
56286;BMP180;42191;47.562;9.686;2022-07-04T11:35:05;97137.00;;;31.70
56286;BMP180;42191;47.562;9.686;2022-07-04T11:37:32;97126.00;;;31.90
56286;BMP180;42191;47.562;9.686;2022-07-04T11:39:59;97121.00;;;32.10
56286;BMP180;42191;47.562;9.686;2022-07-04T11:43:03;97127.00;;;32.40
56286;BMP180;42191;47.562;9.686;2022-07-04T11:45:48;97123.00;;;32.60
56286;BMP180;42191;47.562;9.686;2022-07-04T11:48:24;97126.00;;;32.80
56286;BMP180;42191;47.562;9.686;2022-07-04T11:50:51;97121.00;;;32.90
56286;BMP180;42191;47.562;9.686;2022-07-04T11:53:18;97113.00;;;33.00
56286;BMP180;42191;47.562;9.686;2022-07-04T11:55:58;97106.00;;;33.10
56286;BMP180;42191;47.562;9.686;2022-07-04T11:58:42;97104.00;;;33.20
56286;BMP180;42191;47.562;9.686;2022-07-04T12:01:11;97103.00;;;33.40
56286;BMP180;42191;47.562;9.686;2022-07-04T12:03:38;97093.00;;;33.60
56286;BMP180;42191;47.562;9.686;2022-07-04T12:06:04;97102.00;;;33.70
56286;BMP180;42191;47.562;9.686;2022-07-04T12:08:32;97089.00;;;33.90
56286;BMP180;42191;47.562;9.686;2022-07-04T12:10:58;97080.00;;;34.00
56286;BMP180;42191;47.562;9.686;2022-07-04T12:13:24;97083.00;;;34.00
56286;BMP180;42191;47.562;9.686;2022-07-04T12:15:51;97077.00;;;34.00
56286;BMP180;42191;47.562;9.686;2022-07-04T12:20:50;97067.00;;;34.10
56286;BMP180;42191;47.562;9.686;2022-07-04T12:23:18;97066.00;;;34.10
56286;BMP180;42191;47.562;9.686;2022-07-04T12:25:46;97066.00;;;34.10
56286;BMP180;42191;47.562;9.686;2022-07-04T12:28:14;97060.00;;;34.20
56286;BMP180;42191;47.562;9.686;2022-07-04T12:30:56;97055.00;;;34.30
56286;BMP180;42191;47.562;9.686;2022-07-04T12:33:28;97044.00;;;34.30
56286;BMP180;42191;47.562;9.686;2022-07-04T12:36:02;97048.00;;;34.30
56286;BMP180;42191;47.562;9.686;2022-07-04T12:38:33;97051.00;;;34.30
56286;BMP180;42191;47.562;9.686;2022-07-04T12:41:00;97044.00;;;34.40
56286;BMP180;42191;47.562;9.686;2022-07-04T12:46:28;97038.00;;;34.50
56286;BMP180;42191;47.562;9.686;2022-07-04T12:48:55;97028.00;;;34.50
56286;BMP180;42191;47.562;9.686;2022-07-04T12:51:27;97033.00;;;34.50
56286;BMP180;42191;47.562;9.686;2022-07-04T12:53:55;97042.00;;;34.30
56286;BMP180;42191;47.562;9.686;2022-07-04T12:58:59;97028.00;;;33.60
56286;BMP180;42191;47.562;9.686;2022-07-04T13:01:26;97015.00;;;33.30
56286;BMP180;42191;47.562;9.686;2022-07-04T13:03:52;97017.00;;;33.10
56286;BMP180;42191;47.562;9.686;2022-07-04T13:06:18;97018.00;;;33.00
56286;BMP180;42191;47.562;9.686;2022-07-04T13:08:45;97002.00;;;33.10
56286;BMP180;42191;47.562;9.686;2022-07-04T13:11:11;96997.00;;;33.30
56286;BMP180;42191;47.562;9.686;2022-07-04T13:13:56;96998.00;;;33.80
56286;BMP180;42191;47.562;9.686;2022-07-04T13:16:22;97001.00;;;34.30
56286;BMP180;42191;47.562;9.686;2022-07-04T13:18:48;97005.00;;;34.60
56286;BMP180;42191;47.562;9.686;2022-07-04T13:21:14;96990.00;;;34.90
56286;BMP180;42191;47.562;9.686;2022-07-04T13:23:40;96988.00;;;35.40
56286;BMP180;42191;47.562;9.686;2022-07-04T13:26:06;96992.00;;;35.90
56286;BMP180;42191;47.562;9.686;2022-07-04T13:28:32;96985.00;;;36.50
56286;BMP180;42191;47.562;9.686;2022-07-04T13:30:59;96974.00;;;37.20
56286;BMP180;42191;47.562;9.686;2022-07-04T13:33:25;96970.00;;;37.90
56286;BMP180;42191;47.562;9.686;2022-07-04T13:35:51;96967.00;;;38.40
56286;BMP180;42191;47.562;9.686;2022-07-04T13:38:17;96965.00;;;38.90
56286;BMP180;42191;47.562;9.686;2022-07-04T13:40:44;96968.00;;;39.30
56286;BMP180;42191;47.562;9.686;2022-07-04T13:43:10;96971.00;;;39.60
56286;BMP180;42191;47.562;9.686;2022-07-04T13:45:37;96968.00;;;40.00
56286;BMP180;42191;47.562;9.686;2022-07-04T13:48:05;96957.00;;;40.30
56286;BMP180;42191;47.562;9.686;2022-07-04T13:50:32;96957.00;;;40.60
56286;BMP180;42191;47.562;9.686;2022-07-04T13:52:58;96954.00;;;40.60
56286;BMP180;42191;47.562;9.686;2022-07-04T13:55:24;96947.00;;;40.60
56286;BMP180;42191;47.562;9.686;2022-07-04T13:57:51;96954.00;;;40.70
56286;BMP180;42191;47.562;9.686;2022-07-04T14:00:17;96963.00;;;40.80
56286;BMP180;42191;47.562;9.686;2022-07-04T14:02:43;96971.00;;;40.90
56286;BMP180;42191;47.562;9.686;2022-07-04T14:05:09;96986.00;;;41.00
56286;BMP180;42191;47.562;9.686;2022-07-04T14:07:36;96979.00;;;41.10
56286;BMP180;42191;47.562;9.686;2022-07-04T14:10:03;96972.00;;;41.30
56286;BMP180;42191;47.562;9.686;2022-07-04T14:12:29;96968.00;;;41.50
56286;BMP180;42191;47.562;9.686;2022-07-04T14:14:55;96970.00;;;41.70
56286;BMP180;42191;47.562;9.686;2022-07-04T14:17:21;96958.00;;;41.70
56286;BMP180;42191;47.562;9.686;2022-07-04T14:19:48;96965.00;;;41.50
56286;BMP180;42191;47.562;9.686;2022-07-04T14:22:14;96972.00;;;41.20
56286;BMP180;42191;47.562;9.686;2022-07-04T14:24:40;96976.00;;;40.70
56286;BMP180;42191;47.562;9.686;2022-07-04T14:27:06;96983.00;;;40.20
56286;BMP180;42191;47.562;9.686;2022-07-04T14:29:32;96993.00;;;39.60
56286;BMP180;42191;47.562;9.686;2022-07-04T14:32:00;97002.00;;;38.90
56286;BMP180;42191;47.562;9.686;2022-07-04T14:34:26;97005.00;;;38.10
56286;BMP180;42191;47.562;9.686;2022-07-04T14:36:52;97000.00;;;37.50
56286;BMP180;42191;47.562;9.686;2022-07-04T14:39:18;96985.00;;;36.90
56286;BMP180;42191;47.562;9.686;2022-07-04T14:41:47;96978.00;;;36.30